Time;durP1;ratioP1;P1;durP2;ratioP2;P2;SDS_P1;SDS_P2;PMS_P1;PMS_P2;Temp;Humidity;BMP_temperature;BMP_pressure;BME280_temperature;BME280_humidity;BME280_pressure;Samples;Min_cycle;Max_cycle;Signal;HPM_P1;HPM_P2
2022/12/22 19:00:56;;;;;;;126.72;49.78;;;26.30;33.10;;;;;;5086018;27;20554;-64
2022/12/22 19:03:29;;;;;;;134.18;69.30;;;26.30;30.60;;;;;;5086001;28;20599;-61
2022/12/22 19:05:56;;;;;;;129.73;53.35;;;25.40;30.10;;;;;;5086300;28;20068;-64
2022/12/22 19:08:25;;;;;;;118.53;52.15;;;25.50;31.00;;;;;;5086248;28;20072;-65
2022/12/22 19:11:03;;;;;;;116.95;51.70;;;25.20;30.60;;;;;;5085791;28;20077;-62
2022/12/22 19:13:39;;;;;;;115.32;49.83;;;24.40;30.90;;;;;;5085533;28;20406;-63
2022/12/22 19:16:06;;;;;;;126.82;51.83;;;24.20;32.00;;;;;;5065642;28;20155;-58
2022/12/22 19:18:33;;;;;;;125.20;53.15;;;24.40;32.30;;;;;;5064398;28;20084;-63
2022/12/22 19:20:59;;;;;;;129.35;54.17;;;24.00;33.00;;;;;;5062121;28;20082;-61
2022/12/22 19:23:25;;;;;;;117.32;52.63;;;23.90;32.90;;;;;;5064879;28;20074;-67
2022/12/22 19:26:01;;;;;;;121.95;56.22;;;23.50;33.20;;;;;;5067278;28;20432;-64
2022/12/22 19:28:32;;;;;;;146.53;59.50;;;23.30;33.80;;;;;;5065332;28;20430;-62
2022/12/22 19:30:58;;;;;;;137.13;57.38;;;23.10;34.00;;;;;;5065294;28;20077;-64
2022/12/22 19:33:36;;;;;;;110.78;54.35;;;22.90;34.70;;;;;;5065563;28;20096;-67
2022/12/22 19:36:04;;;;;;;130.10;59.15;;;22.60;34.30;;;;;;5066112;28;20077;-62
2022/12/22 19:38:37;;;;;;;133.50;56.38;;;22.80;35.20;;;;;;5067025;28;20069;-64
2022/12/22 19:41:04;;;;;;;121.07;57.03;;;22.80;35.20;;;;;;5065417;28;20073;-65
2022/12/22 19:43:32;;;;;;;133.95;56.80;;;23.00;35.00;;;;;;5065594;28;20081;-66
2022/12/22 19:45:59;;;;;;;138.30;59.67;;;23.20;34.80;;;;;;5065468;28;20542;-64
2022/12/22 19:48:26;;;;;;;130.52;60.28;;;23.20;33.90;;;;;;5065482;28;20078;-59
2022/12/22 19:50:54;;;;;;;120.28;56.88;;;23.00;34.80;;;;;;5065410;28;20107;-64
2022/12/22 19:53:21;;;;;;;134.85;64.32;;;23.20;34.40;;;;;;5063483;28;20069;-64
2022/12/22 19:55:52;;;;;;;132.55;59.22;;;22.90;33.50;;;;;;5068627;28;20070;-64
2022/12/22 19:58:26;;;;;;;94.15;43.33;;;23.00;34.80;;;;;;5071724;28;20073;-61
2022/12/22 20:00:54;;;;;;;92.05;41.92;;;23.20;31.90;;;;;;5067296;28;20172;-60
2022/12/22 20:03:23;;;;;;;73.30;36.88;;;23.20;32.10;;;;;;5065022;28;20070;-59
2022/12/22 20:05:50;;;;;;;87.65;41.70;;;22.90;30.80;;;;;;5065381;28;20165;-61
2022/12/22 20:08:17;;;;;;;93.22;41.70;;;22.90;32.40;;;;;;5064368;28;20130;-64
2022/12/22 20:10:44;;;;;;;80.18;38.30;;;23.10;31.80;;;;;;5064687;28;20069;-60
2022/12/22 20:13:16;;;;;;;95.03;37.22;;;23.10;32.00;;;;;;5051664;28;20080;-65
2022/12/22 20:15:43;;;;;;;96.47;39.65;;;23.20;31.10;;;;;;5050663;28;20535;-64
2022/12/22 20:18:20;;;;;;;96.05;38.80;;;23.30;31.40;;;;;;5056736;28;20088;-62
2022/12/22 20:20:55;;;;;;;;;;;23.40;31.30;;;;;;5047966;28;20127;-60
2022/12/22 20:23:23;;;;;;;78.43;40.50;;;23.50;31.60;;;;;;5044904;28;19957;-64
2022/12/22 20:26:02;;;;;;;101.68;38.35;;;23.40;30.80;;;;;;5050903;28;20062;-58
2022/12/22 20:28:32;;;;;;;88.05;40.85;;;23.60;30.70;;;;;;5051910;28;20530;-64
2022/12/22 20:31:01;;;;;;;78.43;40.45;;;23.40;30.20;;;;;;5053220;28;20104;-60
2022/12/22 20:33:28;;;;;;;91.78;41.72;;;23.00;31.30;;;;;;5053163;28;20089;-62
2022/12/22 20:35:56;;;;;;;96.22;44.35;;;23.00;31.20;;;;;;5054094;28;20069;-65
2022/12/22 20:38:26;;;;;;;88.38;44.65;;;23.10;31.60;;;;;;5050921;28;20070;-61
2022/12/22 20:40:53;;;;;;;112.30;48.35;;;23.20;31.60;;;;;;5052771;28;20088;-67
2022/12/22 20:43:21;;;;;;;116.90;57.00;;;23.30;31.90;;;;;;5050678;28;20082;-64
2022/12/22 20:45:52;;;;;;;94.05;48.03;;;23.40;31.90;;;;;;5055348;28;20127;-67
2022/12/22 20:48:38;;;;;;;85.13;44.25;;;23.60;32.60;;;;;;5060320;28;20069;-65
2022/12/22 20:51:10;;;;;;;79.90;44.20;;;23.70;32.00;;;;;;5050428;28;20088;-64
2022/12/22 20:53:36;;;;;;;99.13;43.05;;;23.80;31.00;;;;;;5052203;28;20077;-67
2022/12/22 20:56:10;;;;;;;84.78;40.03;;;23.80;31.20;;;;;;5049191;28;20072;-65
2022/12/22 20:58:36;;;;;;;81.85;39.15;;;23.90;30.90;;;;;;5050106;28;20076;-65
2022/12/22 21:01:03;;;;;;;79.85;37.88;;;23.90;31.10;;;;;;5052709;28;20093;-62
2022/12/22 21:03:29;;;;;;;86.45;37.85;;;23.90;31.00;;;;;;5047607;28;20130;-63
2022/12/22 21:05:55;;;;;;;88.22;41.50;;;24.00;30.50;;;;;;5049951;28;20551;-66
2022/12/22 21:08:26;;;;;;;79.63;40.13;;;23.80;30.40;;;;;;5049976;28;20455;-66
2022/12/22 21:10:54;;;;;;;71.97;38.20;;;23.90;30.70;;;;;;5054204;28;20580;-67
2022/12/22 21:13:20;;;;;;;80.32;37.13;;;23.70;30.00;;;;;;5051144;28;20081;-63
2022/12/22 21:15:50;;;;;;;75.95;35.88;;;23.70;30.50;;;;;;5051221;28;20176;-65
2022/12/22 21:18:22;;;;;;;106.70;42.33;;;23.70;30.40;;;;;;5052374;28;20104;-63
2022/12/22 21:20:50;;;;;;;96.80;37.47;;;23.80;29.80;;;;;;5049930;28;20136;-61
2022/12/22 21:23:16;;;;;;;113.57;45.47;;;23.80;30.00;;;;;;5048598;28;20104;-66
2022/12/22 21:25:47;;;;;;;88.22;38.50;;;23.90;30.00;;;;;;5048817;28;20155;-61
